Estación Meteorológica Peña el Pijo (Robertgarden) [ 07/21/18 15:53:11 CEST ]

Fecha Hora Presion(HPa) Temp (°C) Humedad % Rocio (°C) Viento ( m/s) Direccion Lluvia 1Hora(mm) Lluvia 24H(mm) LLuvia Total(mm)
2018-May-04 01:01:47 1003.700 10.8 57 2.6         205.12
2018-May-04 02:01:56 1003.500 9.6 56 1.2         205.12
2018-May-04 03:01:40 1002.900 6.9 61 -0.1         205.12
2018-May-04 04:01:40 1002.800 6.8 65 0.7         205.12
2018-May-04 05:01:39 1002.700 6.6 66 0.7         205.12
2018-May-04 06:01:42 1002.600 6.3 68 0.8         205.12
2018-May-04 07:01:41 1002.600 5.1 70 0.1         205.12
2018-May-04 08:01:35 1002.500 5.8 73 1.3         205.12
2018-May-04 09:01:43 1002.500 9.3 68 3.7         205.12
2018-May-04 10:01:51 1002.300 15.8 46 4.1         205.12
2018-May-04 11:01:57 1002.700 17.8 36 2.4         205.12
2018-May-04 12:01:48 1002.600 19.5 33 2.7         205.12
2018-May-04 13:01:56 1002.900 21.8 30 3.5 2.5 ENE     205.12
2018-May-04 14:01:53 1003.000 17.9 34 1.7 1.7 SW     205.12
2018-May-04 15:01:42 1003.100 19.9 34 3.4         205.12
2018-May-04 16:01:49 1003.200 19.3 34 2.9         205.12
2018-May-04 17:01:41 1002.800 20.2 33 3.3         205.12
2018-May-04 18:01:41 1003.400 16.9 38 2.4         205.12
2018-May-04 19:01:39 1003.700 16.6 40 2.9         205.12
2018-May-04 20:01:57 1003.900 16.3 41 3.0         205.12
2018-May-04 21:01:44 1004.800 14.3 52 4.6         205.12
2018-May-04 22:01:56 1005.300 12.5 59 4.7         205.12
2018-May-04 23:01:53 1006.100 11.2 62 4.1         205.12

Temperatura Máxima:21°    Temperatura Mínima:
Presión Máxima:1006.100 Hpa    Presión Mínima:1002.300 Hpa


Volver